Terminal Aerodrome Forecast
Issued by NWS

Current Version | Previous Version | Graphics & Text | Print | Product List | Glossary On
Versions: 1 2 3 4 5 6 7 8 9 10 11 12 13 14
000
FTUS41 KPBZ 192107 AAA
TAFMGW
TAF AMD
KMGW 192107Z 1921/2018 27012G20KT P6SM VCSH OVC040
      TEMPO 1921/1924 3SM -SHSN BKN022
     FM200000 28010G18KT P6SM OVC025
     FM200800 26008KT P6SM BKN035
     FM201100 25007KT P6SM SCT030=

USA.gov is the U.S. government's official web portal to all federal, state and local government web resources and services.